sensor_id;sensor_type;location;lat;lon;timestamp;pressure;altitude;pressure_sealevel;temperature;humidity
37764;BME280;23602;51.084;7.090;2022-11-15T00:01:34;99640.53;;;9.15;100.00
37764;BME280;23602;51.084;7.090;2022-11-15T00:04:04;99648.16;;;9.18;100.00
37764;BME280;23602;51.084;7.090;2022-11-15T00:06:38;99655.16;;;9.12;100.00
37764;BME280;23602;51.084;7.090;2022-11-15T00:09:09;99637.66;;;9.10;100.00
37764;BME280;23602;51.084;7.090;2022-11-15T00:11:39;99631.66;;;9.08;100.00
37764;BME280;23602;51.084;7.090;2022-11-15T00:14:07;99641.31;;;9.15;100.00
37764;BME280;23602;51.084;7.090;2022-11-15T00:16:33;99626.16;;;8.96;100.00
37764;BME280;23602;51.084;7.090;2022-11-15T00:19:00;99637.28;;;9.00;100.00
37764;BME280;23602;51.084;7.090;2022-11-15T00:21:38;99651.47;;;9.07;100.00
37764;BME280;23602;51.084;7.090;2022-11-15T00:24:03;99648.41;;;8.97;100.00
37764;BME280;23602;51.084;7.090;2022-11-15T00:26:39;99646.19;;;8.87;100.00
37764;BME280;23602;51.084;7.090;2022-11-15T00:29:07;99645.13;;;8.88;100.00
37764;BME280;23602;51.084;7.090;2022-11-15T00:31:41;99669.19;;;9.08;100.00
37764;BME280;23602;51.084;7.090;2022-11-15T00:34:12;99652.31;;;9.01;100.00
37764;BME280;23602;51.084;7.090;2022-11-15T00:36:37;99673.72;;;9.20;100.00
37764;BME280;23602;51.084;7.090;2022-11-15T00:39:06;99677.78;;;9.29;100.00
37764;BME280;23602;51.084;7.090;2022-11-15T00:41:34;99660.25;;;9.27;100.00
37764;BME280;23602;51.084;7.090;2022-11-15T00:44:00;99685.44;;;9.64;100.00
37764;BME280;23602;51.084;7.090;2022-11-15T00:46:30;99678.56;;;9.74;100.00
37764;BME280;23602;51.084;7.090;2022-11-15T00:48:55;99654.56;;;9.54;100.00
37764;BME280;23602;51.084;7.090;2022-11-15T00:51:21;99651.28;;;9.52;100.00
37764;BME280;23602;51.084;7.090;2022-11-15T00:53:49;99671.19;;;9.70;100.00
37764;BME280;23602;51.084;7.090;2022-11-15T00:56:17;99666.34;;;9.85;100.00
37764;BME280;23602;51.084;7.090;2022-11-15T00:58:42;99644.78;;;9.67;100.00
37764;BME280;23602;51.084;7.090;2022-11-15T01:01:12;99645.84;;;9.66;100.00
37764;BME280;23602;51.084;7.090;2022-11-15T01:03:38;99666.25;;;9.67;100.00
37764;BME280;23602;51.084;7.090;2022-11-15T01:06:05;99662.13;;;9.64;100.00
37764;BME280;23602;51.084;7.090;2022-11-15T01:08:33;99656.56;;;9.66;100.00
37764;BME280;23602;51.084;7.090;2022-11-15T01:11:01;99661.81;;;9.85;100.00
37764;BME280;23602;51.084;7.090;2022-11-15T01:13:32;99658.47;;;9.90;100.00
37764;BME280;23602;51.084;7.090;2022-11-15T01:15:59;99661.16;;;9.90;100.00
37764;BME280;23602;51.084;7.090;2022-11-15T01:18:32;99641.84;;;9.75;100.00
37764;BME280;23602;51.084;7.090;2022-11-15T01:21:07;99652.16;;;9.78;100.00
37764;BME280;23602;51.084;7.090;2022-11-15T01:23:43;99658.13;;;9.80;100.00
37764;BME280;23602;51.084;7.090;2022-11-15T01:26:25;99643.56;;;9.63;100.00
37764;BME280;23602;51.084;7.090;2022-11-15T01:28:50;99644.94;;;9.72;100.00
37764;BME280;23602;51.084;7.090;2022-11-15T01:31:19;99662.66;;;9.79;100.00
37764;BME280;23602;51.084;7.090;2022-11-15T01:33:48;99651.56;;;9.69;100.00
37764;BME280;23602;51.084;7.090;2022-11-15T01:36:24;99655.34;;;9.93;100.00
37764;BME280;23602;51.084;7.090;2022-11-15T01:38:56;99649.22;;;9.86;100.00
37764;BME280;23602;51.084;7.090;2022-11-15T01:41:25;99653.34;;;9.82;100.00
37764;BME280;23602;51.084;7.090;2022-11-15T01:47:10;99648.31;;;9.92;100.00
37764;BME280;23602;51.084;7.090;2022-11-15T01:49:39;99646.97;;;9.83;100.00
37764;BME280;23602;51.084;7.090;2022-11-15T01:52:09;99636.66;;;9.80;100.00
37764;BME280;23602;51.084;7.090;2022-11-15T01:54:39;99623.03;;;9.81;100.00
37764;BME280;23602;51.084;7.090;2022-11-15T01:57:09;99621.13;;;9.88;100.00
37764;BME280;23602;51.084;7.090;2022-11-15T01:59:40;99629.09;;;9.95;100.00
37764;BME280;23602;51.084;7.090;2022-11-15T02:02:07;99629.94;;;9.95;100.00
37764;BME280;23602;51.084;7.090;2022-11-15T02:04:36;99627.34;;;10.07;100.00
37764;BME280;23602;51.084;7.090;2022-11-15T02:07:04;99630.28;;;10.05;100.00
37764;BME280;23602;51.084;7.090;2022-11-15T02:09:32;99624.97;;;9.99;100.00
37764;BME280;23602;51.084;7.090;2022-11-15T02:11:58;99598.56;;;9.96;100.00
37764;BME280;23602;51.084;7.090;2022-11-15T02:14:25;99607.97;;;10.05;100.00
37764;BME280;23602;51.084;7.090;2022-11-15T02:22:40;99581.84;;;9.94;100.00
37764;BME280;23602;51.084;7.090;2022-11-15T02:25:26;99596.47;;;9.98;100.00
37764;BME280;23602;51.084;7.090;2022-11-15T02:30:56;99603.38;;;10.12;100.00
37764;BME280;23602;51.084;7.090;2022-11-15T02:33:46;99593.72;;;10.04;100.00
37764;BME280;23602;51.084;7.090;2022-11-15T02:38:59;99590.59;;;10.07;100.00
37764;BME280;23602;51.084;7.090;2022-11-15T02:44:16;99574.00;;;10.17;100.00
37764;BME280;23602;51.084;7.090;2022-11-15T02:46:49;99586.56;;;10.23;100.00
37764;BME280;23602;51.084;7.090;2022-11-15T02:49:35;99565.81;;;10.12;100.00
37764;BME280;23602;51.084;7.090;2022-11-15T02:52:02;99570.63;;;10.28;100.00
37764;BME280;23602;51.084;7.090;2022-11-15T02:54:32;99569.06;;;10.39;100.00
37764;BME280;23602;51.084;7.090;2022-11-15T02:57:02;99554.50;;;10.28;100.00
37764;BME280;23602;51.084;7.090;2022-11-15T02:59:38;99551.00;;;10.46;100.00
37764;BME280;23602;51.084;7.090;2022-11-15T03:05:22;99538.56;;;10.51;100.00
37764;BME280;23602;51.084;7.090;2022-11-15T03:08:02;99516.53;;;10.25;100.00
37764;BME280;23602;51.084;7.090;2022-11-15T03:10:50;99544.00;;;10.45;100.00
37764;BME280;23602;51.084;7.090;2022-11-15T03:13:35;99540.56;;;10.38;100.00
37764;BME280;23602;51.084;7.090;2022-11-15T03:16:06;99529.75;;;10.62;100.00
37764;BME280;23602;51.084;7.090;2022-11-15T03:18:37;99522.19;;;10.53;100.00
37764;BME280;23602;51.084;7.090;2022-11-15T03:21:09;99524.25;;;10.57;100.00
37764;BME280;23602;51.084;7.090;2022-11-15T03:23:38;99521.84;;;10.67;100.00
37764;BME280;23602;51.084;7.090;2022-11-15T03:26:07;99506.91;;;10.53;100.00
37764;BME280;23602;51.084;7.090;2022-11-15T03:28:44;99497.72;;;10.61;100.00
37764;BME280;23602;51.084;7.090;2022-11-15T03:31:15;99508.34;;;10.86;100.00
37764;BME280;23602;51.084;7.090;2022-11-15T03:34:04;99474.94;;;10.82;100.00
37764;BME280;23602;51.084;7.090;2022-11-15T03:36:43;99488.81;;;10.78;100.00
37764;BME280;23602;51.084;7.090;2022-11-15T03:39:15;99501.72;;;10.88;100.00
37764;BME280;23602;51.084;7.090;2022-11-15T03:44:26;99508.75;;;10.71;100.00
37764;BME280;23602;51.084;7.090;2022-11-15T03:47:06;99508.84;;;10.64;100.00
37764;BME280;23602;51.084;7.090;2022-11-15T03:49:35;99502.88;;;10.62;100.00
37764;BME280;23602;51.084;7.090;2022-11-15T03:52:06;99496.25;;;10.47;100.00
37764;BME280;23602;51.084;7.090;2022-11-15T03:54:39;99503.78;;;10.56;100.00
37764;BME280;23602;51.084;7.090;2022-11-15T03:57:15;99521.16;;;10.72;100.00
37764;BME280;23602;51.084;7.090;2022-11-15T03:59:42;99484.97;;;10.56;100.00
37764;BME280;23602;51.084;7.090;2022-11-15T04:02:22;99481.00;;;10.77;100.00
37764;BME280;23602;51.084;7.090;2022-11-15T04:04:48;99478.00;;;10.85;100.00
37764;BME280;23602;51.084;7.090;2022-11-15T04:07:13;99479.69;;;10.98;100.00
37764;BME280;23602;51.084;7.090;2022-11-15T04:09:38;99466.81;;;11.00;100.00
37764;BME280;23602;51.084;7.090;2022-11-15T04:12:24;99455.56;;;10.91;100.00
37764;BME280;23602;51.084;7.090;2022-11-15T04:14:57;99461.88;;;10.85;100.00
37764;BME280;23602;51.084;7.090;2022-11-15T04:17:47;99469.66;;;11.05;100.00
37764;BME280;23602;51.084;7.090;2022-11-15T04:20:21;99468.81;;;11.04;100.00
37764;BME280;23602;51.084;7.090;2022-11-15T04:23:20;99446.63;;;11.09;100.00
37764;BME280;23602;51.084;7.090;2022-11-15T04:26:09;99474.19;;;11.04;100.00
37764;BME280;23602;51.084;7.090;2022-11-15T04:28:38;99457.75;;;10.83;100.00
37764;BME280;23602;51.084;7.090;2022-11-15T04:31:22;99460.50;;;10.64;100.00
37764;BME280;23602;51.084;7.090;2022-11-15T04:33:58;99461.81;;;10.73;100.00
37764;BME280;23602;51.084;7.090;2022-11-15T04:36:31;99488.78;;;10.97;100.00
37764;BME280;23602;51.084;7.090;2022-11-15T04:39:15;99462.84;;;11.02;100.00
37764;BME280;23602;51.084;7.090;2022-11-15T04:41:40;99457.63;;;11.19;100.00
37764;BME280;23602;51.084;7.090;2022-11-15T04:44:06;99450.50;;;11.13;100.00
37764;BME280;23602;51.084;7.090;2022-11-15T04:46:41;99412.41;;;11.16;100.00
37764;BME280;23602;51.084;7.090;2022-11-15T04:49:10;99426.75;;;10.98;100.00
37764;BME280;23602;51.084;7.090;2022-11-15T04:51:36;99442.91;;;11.21;100.00
37764;BME280;23602;51.084;7.090;2022-11-15T04:54:02;99453.50;;;11.05;100.00
37764;BME280;23602;51.084;7.090;2022-11-15T04:56:32;99434.56;;;11.00;100.00
37764;BME280;23602;51.084;7.090;2022-11-15T04:59:02;99429.44;;;11.10;100.00
37764;BME280;23602;51.084;7.090;2022-11-15T05:01:30;99443.78;;;10.92;100.00
37764;BME280;23602;51.084;7.090;2022-11-15T05:04:06;99419.97;;;11.07;100.00
37764;BME280;23602;51.084;7.090;2022-11-15T05:06:44;99434.09;;;11.03;100.00
37764;BME280;23602;51.084;7.090;2022-11-15T05:09:10;99446.66;;;11.20;100.00
37764;BME280;23602;51.084;7.090;2022-11-15T05:11:38;99441.09;;;11.04;100.00
37764;BME280;23602;51.084;7.090;2022-11-15T05:14:04;99436.00;;;11.14;100.00
37764;BME280;23602;51.084;7.090;2022-11-15T05:16:30;99415.66;;;11.18;100.00
37764;BME280;23602;51.084;7.090;2022-11-15T05:18:55;99417.41;;;11.24;100.00
37764;BME280;23602;51.084;7.090;2022-11-15T05:21:28;99417.88;;;11.09;100.00
37764;BME280;23602;51.084;7.090;2022-11-15T05:24:06;99434.16;;;11.26;100.00
37764;BME280;23602;51.084;7.090;2022-11-15T05:26:36;99439.88;;;11.29;100.00
37764;BME280;23602;51.084;7.090;2022-11-15T05:29:22;99434.41;;;11.36;100.00
37764;BME280;23602;51.084;7.090;2022-11-15T05:45:07;99421.13;;;11.11;100.00
37764;BME280;23602;51.084;7.090;2022-11-15T05:54:54;99412.03;;;11.24;100.00
37764;BME280;23602;51.084;7.090;2022-11-15T05:57:20;99428.44;;;11.34;100.00
37764;BME280;23602;51.084;7.090;2022-11-15T05:59:46;99438.72;;;11.37;100.00
37764;BME280;23602;51.084;7.090;2022-11-15T06:02:11;99434.41;;;11.36;100.00
37764;BME280;23602;51.084;7.090;2022-11-15T06:04:40;99443.06;;;11.38;100.00
37764;BME280;23602;51.084;7.090;2022-11-15T06:07:05;99436.63;;;11.39;100.00
37764;BME280;23602;51.084;7.090;2022-11-15T06:09:33;99438.38;;;11.45;100.00
37764;BME280;23602;51.084;7.090;2022-11-15T06:11:58;99420.59;;;11.32;100.00
37764;BME280;23602;51.084;7.090;2022-11-15T06:14:24;99410.38;;;11.11;100.00
37764;BME280;23602;51.084;7.090;2022-11-15T06:16:49;99435.53;;;11.17;100.00
37764;BME280;23602;51.084;7.090;2022-11-15T06:19:17;99443.91;;;10.97;100.00
37764;BME280;23602;51.084;7.090;2022-11-15T06:21:42;99459.78;;;10.99;100.00
37764;BME280;23602;51.084;7.090;2022-11-15T06:24:08;99440.56;;;10.84;100.00
37764;BME280;23602;51.084;7.090;2022-11-15T06:26:36;99464.28;;;10.75;100.00
37764;BME280;23602;51.084;7.090;2022-11-15T06:29:06;99460.91;;;10.79;100.00
37764;BME280;23602;51.084;7.090;2022-11-15T06:31:31;99459.53;;;10.59;100.00
37764;BME280;23602;51.084;7.090;2022-11-15T06:34:00;99471.78;;;10.85;100.00
37764;BME280;23602;51.084;7.090;2022-11-15T06:36:25;99452.56;;;10.69;100.00
37764;BME280;23602;51.084;7.090;2022-11-15T06:38:50;99462.78;;;10.61;100.00
37764;BME280;23602;51.084;7.090;2022-11-15T06:41:18;99472.13;;;10.58;100.00
37764;BME280;23602;51.084;7.090;2022-11-15T06:43:46;99478.72;;;10.62;100.00
37764;BME280;23602;51.084;7.090;2022-11-15T06:46:11;99473.94;;;10.46;100.00
37764;BME280;23602;51.084;7.090;2022-11-15T06:48:36;99483.13;;;10.57;100.00
37764;BME280;23602;51.084;7.090;2022-11-15T06:51:05;99489.03;;;10.47;100.00
37764;BME280;23602;51.084;7.090;2022-11-15T06:53:31;99476.91;;;10.38;100.00
37764;BME280;23602;51.084;7.090;2022-11-15T06:56:04;99486.97;;;10.43;100.00
37764;BME280;23602;51.084;7.090;2022-11-15T06:58:29;99477.00;;;10.32;100.00
37764;BME280;23602;51.084;7.090;2022-11-15T07:01:07;99492.19;;;10.20;100.00
37764;BME280;23602;51.084;7.090;2022-11-15T07:03:40;99497.38;;;10.39;100.00
37764;BME280;23602;51.084;7.090;2022-11-15T07:06:07;99483.94;;;10.39;100.00
37764;BME280;23602;51.084;7.090;2022-11-15T07:08:33;99497.13;;;10.23;100.00
37764;BME280;23602;51.084;7.090;2022-11-15T07:10:59;99496.78;;;10.19;100.00
37764;BME280;23602;51.084;7.090;2022-11-15T07:13:29;99504.34;;;10.04;100.00
37764;BME280;23602;51.084;7.090;2022-11-15T07:15:58;99512.22;;;9.99;100.00
37764;BME280;23602;51.084;7.090;2022-11-15T07:18:28;99521.19;;;10.11;100.00
37764;BME280;23602;51.084;7.090;2022-11-15T07:21:00;99513.41;;;10.03;100.00
37764;BME280;23602;51.084;7.090;2022-11-15T07:23:25;99514.16;;;10.10;100.00
37764;BME280;23602;51.084;7.090;2022-11-15T07:25:51;99525.13;;;10.08;100.00
37764;BME280;23602;51.084;7.090;2022-11-15T07:28:16;99522.66;;;10.07;100.00
37764;BME280;23602;51.084;7.090;2022-11-15T07:30:42;99512.66;;;9.96;100.00
37764;BME280;23602;51.084;7.090;2022-11-15T07:33:07;99523.25;;;9.91;100.00
37764;BME280;23602;51.084;7.090;2022-11-15T07:35:32;99518.22;;;9.76;100.00
37764;BME280;23602;51.084;7.090;2022-11-15T07:38:00;99530.06;;;9.87;100.00
37764;BME280;23602;51.084;7.090;2022-11-15T07:40:27;99540.25;;;10.03;100.00
37764;BME280;23602;51.084;7.090;2022-11-15T07:42:58;99523.84;;;9.93;100.00
37764;BME280;23602;51.084;7.090;2022-11-15T07:45:25;99529.38;;;9.98;100.00
37764;BME280;23602;51.084;7.090;2022-11-15T07:47:53;99524.66;;;9.93;100.00
37764;BME280;23602;51.084;7.090;2022-11-15T07:50:25;99505.91;;;10.11;100.00
37764;BME280;23602;51.084;7.090;2022-11-15T07:52:58;99497.56;;;10.20;100.00
37764;BME280;23602;51.084;7.090;2022-11-15T07:55:24;99506.78;;;10.05;100.00
37764;BME280;23602;51.084;7.090;2022-11-15T07:57:53;99512.94;;;10.12;100.00
37764;BME280;23602;51.084;7.090;2022-11-15T08:00:21;99509.75;;;9.97;100.00
37764;BME280;23602;51.084;7.090;2022-11-15T08:02:46;99515.06;;;10.04;100.00
37764;BME280;23602;51.084;7.090;2022-11-15T08:05:12;99505.72;;;10.13;100.00
37764;BME280;23602;51.084;7.090;2022-11-15T08:07:37;99496.97;;;10.18;100.00
37764;BME280;23602;51.084;7.090;2022-11-15T08:10:05;99493.25;;;10.19;100.00
37764;BME280;23602;51.084;7.090;2022-11-15T08:12:33;99497.28;;;10.28;100.00
37764;BME280;23602;51.084;7.090;2022-11-15T08:15:00;99502.88;;;10.26;100.00
37764;BME280;23602;51.084;7.090;2022-11-15T08:17:26;99483.25;;;10.26;100.00
37764;BME280;23602;51.084;7.090;2022-11-15T08:19:51;99483.03;;;10.27;100.00
37764;BME280;23602;51.084;7.090;2022-11-15T08:22:17;99491.09;;;10.45;100.00
37764;BME280;23602;51.084;7.090;2022-11-15T08:24:43;99473.19;;;10.21;100.00
37764;BME280;23602;51.084;7.090;2022-11-15T08:27:09;99490.34;;;10.20;100.00
37764;BME280;23602;51.084;7.090;2022-11-15T08:29:42;99482.03;;;10.58;100.00
37764;BME280;23602;51.084;7.090;2022-11-15T08:32:10;99476.91;;;10.56;100.00
37764;BME280;23602;51.084;7.090;2022-11-15T08:34:38;99444.81;;;10.61;100.00
37764;BME280;23602;51.084;7.090;2022-11-15T08:37:04;99456.25;;;10.87;100.00
37764;BME280;23602;51.084;7.090;2022-11-15T08:39:29;99450.19;;;10.91;100.00
37764;BME280;23602;51.084;7.090;2022-11-15T08:41:54;99458.81;;;10.82;100.00
37764;BME280;23602;51.084;7.090;2022-11-15T08:44:22;99449.75;;;10.64;100.00
37764;BME280;23602;51.084;7.090;2022-11-15T08:46:49;99462.03;;;10.72;100.00
37764;BME280;23602;51.084;7.090;2022-11-15T08:49:14;99441.97;;;10.86;100.00
37764;BME280;23602;51.084;7.090;2022-11-15T08:51:40;99444.59;;;10.93;100.00
37764;BME280;23602;51.084;7.090;2022-11-15T08:54:05;99440.00;;;10.82;100.00
37764;BME280;23602;51.084;7.090;2022-11-15T08:56:31;99418.25;;;10.83;100.00
37764;BME280;23602;51.084;7.090;2022-11-15T08:59:04;99415.97;;;10.98;100.00
37764;BME280;23602;51.084;7.090;2022-11-15T09:01:40;99397.38;;;10.97;100.00
37764;BME280;23602;51.084;7.090;2022-11-15T09:04:08;99396.09;;;10.99;100.00
37764;BME280;23602;51.084;7.090;2022-11-15T09:06:38;99403.72;;;11.02;100.00
37764;BME280;23602;51.084;7.090;2022-11-15T09:09:03;99397.50;;;11.02;100.00
37764;BME280;23602;51.084;7.090;2022-11-15T09:11:32;99400.56;;;11.17;100.00
37764;BME280;23602;51.084;7.090;2022-11-15T09:13:57;99372.28;;;11.14;100.00
37764;BME280;23602;51.084;7.090;2022-11-15T09:16:46;99391.94;;;11.26;100.00
37764;BME280;23602;51.084;7.090;2022-11-15T09:19:14;99384.47;;;11.40;100.00
37764;BME280;23602;51.084;7.090;2022-11-15T09:21:55;99385.50;;;11.39;100.00
37764;BME280;23602;51.084;7.090;2022-11-15T09:24:24;99385.88;;;11.54;100.00
37764;BME280;23602;51.084;7.090;2022-11-15T09:26:52;99354.53;;;11.48;100.00
37764;BME280;23602;51.084;7.090;2022-11-15T09:29:18;99379.56;;;11.49;100.00
37764;BME280;23602;51.084;7.090;2022-11-15T09:31:51;99391.03;;;11.79;100.00
37764;BME280;23602;51.084;7.090;2022-11-15T09:34:19;99370.56;;;11.66;100.00
37764;BME280;23602;51.084;7.090;2022-11-15T09:36:46;99366.34;;;11.70;100.00
37764;BME280;23602;51.084;7.090;2022-11-15T09:39:24;99382.69;;;12.03;100.00
37764;BME280;23602;51.084;7.090;2022-11-15T09:50:27;99370.00;;;12.16;100.00
37764;BME280;23602;51.084;7.090;2022-11-15T09:52:59;99361.13;;;12.15;100.00
37764;BME280;23602;51.084;7.090;2022-11-15T10:01:04;99329.44;;;12.34;100.00
37764;BME280;23602;51.084;7.090;2022-11-15T10:03:35;99302.19;;;12.19;100.00
37764;BME280;23602;51.084;7.090;2022-11-15T10:06:03;99320.28;;;12.35;100.00
37764;BME280;23602;51.084;7.090;2022-11-15T10:09:24;99303.47;;;12.28;100.00
37764;BME280;23602;51.084;7.090;2022-11-15T10:11:51;99296.25;;;12.17;100.00
37764;BME280;23602;51.084;7.090;2022-11-15T10:14:22;99297.88;;;12.18;100.00
37764;BME280;23602;51.084;7.090;2022-11-15T10:17:17;99312.94;;;12.30;100.00
37764;BME280;23602;51.084;7.090;2022-11-15T10:27:29;99280.38;;;12.48;100.00
37764;BME280;23602;51.084;7.090;2022-11-15T10:29:56;99272.97;;;12.72;100.00
37764;BME280;23602;51.084;7.090;2022-11-15T10:32:22;99273.31;;;12.76;100.00
37764;BME280;23602;51.084;7.090;2022-11-15T10:34:48;99275.19;;;12.75;100.00
37764;BME280;23602;51.084;7.090;2022-11-15T10:37:14;99258.38;;;12.68;100.00
37764;BME280;23602;51.084;7.090;2022-11-15T10:39:40;99275.91;;;12.87;100.00
37764;BME280;23602;51.084;7.090;2022-11-15T10:42:26;99269.16;;;13.01;100.00
37764;BME280;23602;51.084;7.090;2022-11-15T10:45:23;99251.88;;;13.02;100.00
37764;BME280;23602;51.084;7.090;2022-11-15T10:50:37;99262.69;;;13.19;100.00
37764;BME280;23602;51.084;7.090;2022-11-15T10:53:03;99251.00;;;13.13;100.00
37764;BME280;23602;51.084;7.090;2022-11-15T10:55:31;99254.91;;;13.22;100.00
37764;BME280;23602;51.084;7.090;2022-11-15T11:01:22;99235.41;;;12.99;100.00
37764;BME280;23602;51.084;7.090;2022-11-15T11:04:05;99243.91;;;13.07;100.00
37764;BME280;23602;51.084;7.090;2022-11-15T11:11:49;99217.34;;;13.38;100.00
37764;BME280;23602;51.084;7.090;2022-11-15T11:14:23;99210.25;;;13.53;100.00
37764;BME280;23602;51.084;7.090;2022-11-15T11:25:25;99223.75;;;13.75;100.00
37764;BME280;23602;51.084;7.090;2022-11-15T11:28:14;99199.63;;;13.68;100.00
37764;BME280;23602;51.084;7.090;2022-11-15T11:31:05;99193.13;;;13.64;100.00
37764;BME280;23602;51.084;7.090;2022-11-15T11:33:40;99198.25;;;13.66;100.00
37764;BME280;23602;51.084;7.090;2022-11-15T11:36:19;99206.91;;;13.68;100.00
37764;BME280;23602;51.084;7.090;2022-11-15T11:38:51;99195.81;;;13.64;100.00
37764;BME280;23602;51.084;7.090;2022-11-15T11:46:56;99182.88;;;13.23;100.00
37764;BME280;23602;51.084;7.090;2022-11-15T11:49:34;99179.06;;;13.19;100.00
37764;BME280;23602;51.084;7.090;2022-11-15T11:52:33;99184.53;;;13.24;100.00
37764;BME280;23602;51.084;7.090;2022-11-15T11:55:31;99182.25;;;12.99;100.00
37764;BME280;23602;51.084;7.090;2022-11-15T12:00:46;99161.91;;;12.92;100.00
37764;BME280;23602;51.084;7.090;2022-11-15T12:03:14;99176.47;;;13.07;100.00
37764;BME280;23602;51.084;7.090;2022-11-15T12:08:52;99183.41;;;12.87;100.00
37764;BME280;23602;51.084;7.090;2022-11-15T12:11:28;99180.91;;;12.80;100.00
37764;BME280;23602;51.084;7.090;2022-11-15T12:14:00;99178.44;;;12.95;100.00
37764;BME280;23602;51.084;7.090;2022-11-15T12:16:28;99183.91;;;13.00;100.00
37764;BME280;23602;51.084;7.090;2022-11-15T12:18:58;99176.84;;;12.99;100.00
37764;BME280;23602;51.084;7.090;2022-11-15T12:24:20;99154.78;;;13.02;100.00
37764;BME280;23602;51.084;7.090;2022-11-15T12:27:02;99151.50;;;13.17;100.00
37764;BME280;23602;51.084;7.090;2022-11-15T12:29:38;99153.47;;;13.21;100.00
37764;BME280;23602;51.084;7.090;2022-11-15T12:34:51;99136.13;;;13.17;100.00
37764;BME280;23602;51.084;7.090;2022-11-15T12:45:47;99111.31;;;13.15;100.00
37764;BME280;23602;51.084;7.090;2022-11-15T12:51:01;99102.50;;;13.03;100.00
37764;BME280;23602;51.084;7.090;2022-11-15T12:53:31;99110.75;;;12.97;100.00
37764;BME280;23602;51.084;7.090;2022-11-15T12:58:59;99098.00;;;13.30;100.00
37764;BME280;23602;51.084;7.090;2022-11-15T13:07:05;99077.06;;;13.43;100.00
37764;BME280;23602;51.084;7.090;2022-11-15T13:14:49;99055.84;;;13.24;100.00
37764;BME280;23602;51.084;7.090;2022-11-15T13:17:31;99052.47;;;13.12;100.00
37764;BME280;23602;51.084;7.090;2022-11-15T13:22:40;99057.09;;;12.95;100.00
37764;BME280;23602;51.084;7.090;2022-11-15T13:30:40;99021.47;;;12.93;100.00
37764;BME280;23602;51.084;7.090;2022-11-15T13:33:45;99049.31;;;12.99;100.00
37764;BME280;23602;51.084;7.090;2022-11-15T13:36:29;99038.31;;;13.05;100.00
37764;BME280;23602;51.084;7.090;2022-11-15T13:39:04;99018.22;;;12.91;100.00
37764;BME280;23602;51.084;7.090;2022-11-15T13:41:35;99019.00;;;12.92;100.00
37764;BME280;23602;51.084;7.090;2022-11-15T13:44:02;99023.72;;;13.01;100.00
37764;BME280;23602;51.084;7.090;2022-11-15T13:47:12;99033.44;;;13.02;100.00
37764;BME280;23602;51.084;7.090;2022-11-15T13:49:39;99005.47;;;12.87;100.00
37764;BME280;23602;51.084;7.090;2022-11-15T13:52:16;98994.81;;;12.75;100.00
37764;BME280;23602;51.084;7.090;2022-11-15T13:54:56;99006.06;;;12.89;100.00
37764;BME280;23602;51.084;7.090;2022-11-15T13:57:41;98983.44;;;12.68;100.00
37764;BME280;23602;51.084;7.090;2022-11-15T14:06:16;98979.47;;;12.76;100.00
37764;BME280;23602;51.084;7.090;2022-11-15T14:12:49;98985.44;;;13.04;100.00
37764;BME280;23602;51.084;7.090;2022-11-15T14:15:33;98963.28;;;12.76;100.00
37764;BME280;23602;51.084;7.090;2022-11-15T14:18:02;98969.50;;;12.76;100.00
37764;BME280;23602;51.084;7.090;2022-11-15T14:21:05;98977.06;;;12.79;100.00
37764;BME280;23602;51.084;7.090;2022-11-15T14:23:36;98949.81;;;12.54;100.00
37764;BME280;23602;51.084;7.090;2022-11-15T14:26:04;98972.81;;;12.83;100.00
37764;BME280;23602;51.084;7.090;2022-11-15T14:28:40;98947.56;;;12.67;100.00
37764;BME280;23602;51.084;7.090;2022-11-15T14:31:14;98937.66;;;12.51;100.00
37764;BME280;23602;51.084;7.090;2022-11-15T14:33:52;98942.34;;;12.61;100.00
37764;BME280;23602;51.084;7.090;2022-11-15T14:36:23;98925.94;;;12.41;100.00
37764;BME280;23602;51.084;7.090;2022-11-15T14:39:02;98927.31;;;12.43;100.00
37764;BME280;23602;51.084;7.090;2022-11-15T14:41:43;98922.31;;;12.52;100.00
37764;BME280;23602;51.084;7.090;2022-11-15T14:44:17;98906.63;;;12.49;100.00
37764;BME280;23602;51.084;7.090;2022-11-15T14:46:55;98915.66;;;12.59;100.00
37764;BME280;23602;51.084;7.090;2022-11-15T14:49:20;98913.84;;;12.65;100.00
37764;BME280;23602;51.084;7.090;2022-11-15T14:51:48;98916.38;;;12.50;100.00
37764;BME280;23602;51.084;7.090;2022-11-15T14:54:14;98926.31;;;12.49;100.00
37764;BME280;23602;51.084;7.090;2022-11-15T14:56:42;98924.13;;;12.46;100.00
37764;BME280;23602;51.084;7.090;2022-11-15T14:59:08;98918.56;;;12.53;100.00
37764;BME280;23602;51.084;7.090;2022-11-15T15:01:42;98894.19;;;12.43;100.00
37764;BME280;23602;51.084;7.090;2022-11-15T15:04:20;98889.97;;;12.52;100.00
37764;BME280;23602;51.084;7.090;2022-11-15T15:06:56;98908.63;;;12.80;100.00
37764;BME280;23602;51.084;7.090;2022-11-15T15:09:33;98899.22;;;12.61;100.00
37764;BME280;23602;51.084;7.090;2022-11-15T15:12:01;98892.56;;;12.42;100.00
37764;BME280;23602;51.084;7.090;2022-11-15T15:14:30;98878.75;;;12.38;100.00
37764;BME280;23602;51.084;7.090;2022-11-15T15:17:01;98886.91;;;12.43;100.00
37764;BME280;23602;51.084;7.090;2022-11-15T15:22:37;98869.78;;;12.28;100.00
37764;BME280;23602;51.084;7.090;2022-11-15T15:25:34;98877.38;;;12.36;100.00
37764;BME280;23602;51.084;7.090;2022-11-15T15:28:10;98857.66;;;12.09;100.00
37764;BME280;23602;51.084;7.090;2022-11-15T15:30:36;98840.97;;;12.07;100.00
37764;BME280;23602;51.084;7.090;2022-11-15T15:35:56;98852.16;;;11.98;100.00
37764;BME280;23602;51.084;7.090;2022-11-15T15:38:27;98851.34;;;11.98;100.00
37764;BME280;23602;51.084;7.090;2022-11-15T15:41:02;98823.53;;;11.92;100.00
37764;BME280;23602;51.084;7.090;2022-11-15T15:43:29;98818.69;;;11.89;100.00
37764;BME280;23602;51.084;7.090;2022-11-15T15:45:55;98827.81;;;11.88;100.00
37764;BME280;23602;51.084;7.090;2022-11-15T15:48:23;98821.38;;;11.89;100.00